Time,TemperatureF,DewpointF,PressureIn,WindDirection,WindDirectionDegrees,WindSpeedMPH,WindSpeedGustMPH,Humidity,HourlyPrecipIn,Conditions,Clouds,dailyrainin,SoftwareType,DateUTC
2013-09-15 00:13:00,51.0,49.9,30.20,East,90,0.0,0.0,96,0.00,,---,0.00,VWS V14.01,2013-09-15 04:13:00,
2013-09-15 00:28:00,50.6,49.5,30.21,East,90,0.0,0.0,96,0.00,,---,0.00,VWS V14.01,2013-09-15 04:28:00,
2013-09-15 00:43:00,50.3,49.2,30.21,East,90,0.0,0.0,96,0.00,,---,0.00,VWS V14.01,2013-09-15 04:43:00,
2013-09-15 00:58:00,50.2,49.1,30.22,East,90,0.0,0.0,96,0.00,,---,0.00,VWS V14.01,2013-09-15 04:58:00,
2013-09-15 01:13:00,50.2,49.4,30.22,East,90,0.0,0.0,97,0.00,,---,0.00,VWS V14.01,2013-09-15 05:13:00,
2013-09-15 01:28:00,50.1,49.3,30.22,East,90,0.0,0.0,97,0.00,,---,0.00,VWS V14.01,2013-09-15 05:28:00,
2013-09-15 01:43:00,50.1,49.3,30.22,East,90,0.0,0.0,97,0.00,,---,0.00,VWS V14.01,2013-09-15 05:43:00,
2013-09-15 01:58:00,49.8,48.7,30.22,East,90,0.0,0.0,96,0.00,,---,0.00,VWS V14.01,2013-09-15 05:58:00,
2013-09-15 02:13:00,49.6,48.8,30.22,East,90,0.0,0.0,97,0.00,,---,0.00,VWS V14.01,2013-09-15 06:13:00,
2013-09-15 02:28:00,49.3,48.5,30.23,East,90,0.0,0.0,97,0.00,,---,0.00,VWS V14.01,2013-09-15 06:28:00,
2013-09-15 02:43:00,49.0,48.2,30.23,East,90,0.0,0.0,97,0.00,,---,0.00,VWS V14.01,2013-09-15 06:43:00,
2013-09-15 02:58:00,49.0,48.2,30.23,East,90,0.0,0.0,97,0.00,,---,0.00,VWS V14.01,2013-09-15 06:58:00,
2013-09-15 03:13:00,48.9,48.1,30.23,East,90,0.0,0.0,97,0.00,,---,0.00,VWS V14.01,2013-09-15 07:13:00,
2013-09-15 03:28:00,48.8,48.0,30.23,East,90,0.0,0.0,97,0.00,,---,0.00,VWS V14.01,2013-09-15 07:28:00,
2013-09-15 03:43:00,48.8,48.0,30.24,East,90,0.0,0.0,97,0.00,,---,0.00,VWS V14.01,2013-09-15 07:43:00,
2013-09-15 03:58:00,48.7,47.9,30.24,East,90,0.0,0.0,97,0.00,,---,0.00,VWS V14.01,2013-09-15 07:58:00,
2013-09-15 04:13:00,48.7,47.9,30.24,East,90,0.0,0.0,97,0.00,,---,0.00,VWS V14.01,2013-09-15 08:13:00,
2013-09-15 04:28:00,48.6,47.8,30.24,East,90,0.0,0.0,97,0.00,,---,0.00,VWS V14.01,2013-09-15 08:28:00,
2013-09-15 04:43:00,48.5,47.7,30.25,East,90,0.0,0.0,97,0.00,,---,0.00,VWS V14.01,2013-09-15 08:43:00,
2013-09-15 04:58:00,48.2,47.4,30.25,East,90,0.0,0.0,97,0.00,,---,0.00,VWS V14.01,2013-09-15 08:58:00,
2013-09-15 05:13:00,47.9,47.1,30.26,East,90,0.0,0.0,97,0.00,,---,0.00,VWS V14.01,2013-09-15 09:13:00,
2013-09-15 05:28:00,47.6,46.8,30.27,East,90,0.0,0.0,97,0.00,,---,0.00,VWS V14.01,2013-09-15 09:28:00,
2013-09-15 05:43:00,47.2,46.4,30.27,East,90,0.0,0.0,97,0.00,,---,0.00,VWS V14.01,2013-09-15 09:43:00,
2013-09-15 05:58:00,46.9,46.1,30.27,East,90,0.0,0.0,97,0.00,,---,0.00,VWS V14.01,2013-09-15 09:58:00,
2013-09-15 06:13:00,46.6,45.8,30.28,East,90,0.0,0.0,97,0.00,,---,0.00,VWS V14.01,2013-09-15 10:13:00,
2013-09-15 06:28:00,46.3,45.5,30.28,East,90,0.0,0.0,97,0.00,,---,0.00,VWS V14.01,2013-09-15 10:28:00,
2013-09-15 06:43:00,46.3,45.5,30.29,East,90,0.0,0.0,97,0.00,,---,0.00,VWS V14.01,2013-09-15 10:43:00,
2013-09-15 06:58:00,46.3,45.8,30.29,East,90,0.0,0.0,98,0.00,,---,0.00,VWS V14.01,2013-09-15 10:58:00,
2013-09-15 07:13:00,46.4,45.9,30.29,East,90,0.0,0.0,98,0.00,,---,0.00,VWS V14.01,2013-09-15 11:13:00,
2013-09-15 07:28:00,46.8,46.3,30.30,East,90,0.0,0.0,98,0.00,,---,0.00,VWS V14.01,2013-09-15 11:28:00,
2013-09-15 07:43:00,47.4,46.9,30.30,East,90,0.0,0.0,98,0.00,,---,0.00,VWS V14.01,2013-09-15 11:43:00,
2013-09-15 07:58:00,48.5,48.2,30.30,East,90,0.0,0.0,99,0.00,,---,0.00,VWS V14.01,2013-09-15 11:58:00,
2013-09-15 08:13:00,49.4,49.1,30.30,East,90,0.0,0.0,99,0.00,,---,0.00,VWS V14.01,2013-09-15 12:13:00,
2013-09-15 08:28:00,50.6,50.3,30.30,East,90,0.0,0.0,99,0.00,,---,0.00,VWS V14.01,2013-09-15 12:28:00,
2013-09-15 08:43:00,51.6,51.3,30.30,East,90,0.0,0.0,99,0.00,,---,0.00,VWS V14.01,2013-09-15 12:43:00,
2013-09-15 08:58:00,52.7,52.4,30.31,East,90,0.0,0.0,99,0.00,,---,0.00,VWS V14.01,2013-09-15 12:58:00,
2013-09-15 09:13:00,53.6,53.3,30.31,NNE,13,0.0,0.0,99,0.00,,---,0.00,VWS V14.01,2013-09-15 13:13:00,
2013-09-15 09:28:00,54.6,54.3,30.31,NNE,13,0.0,0.0,99,0.00,,---,0.00,VWS V14.01,2013-09-15 13:28:00,
2013-09-15 09:43:00,55.7,53.4,30.31,NNE,13,1.0,1.0,92,0.00,,---,0.00,VWS V14.01,2013-09-15 13:43:00,
2013-09-15 09:58:00,56.9,53.7,30.32,NNE,13,0.0,1.0,89,0.00,,---,0.00,VWS V14.01,2013-09-15 13:58:00,
2013-09-15 10:13:00,58.0,52.9,30.31,NNE,13,0.0,0.0,83,0.00,,---,0.00,VWS V14.01,2013-09-15 14:13:00,
2013-09-15 10:28:00,59.2,53.4,30.32,NNE,13,0.0,0.0,81,0.00,,---,0.00,VWS V14.01,2013-09-15 14:28:00,
2013-09-15 10:43:00,60.4,54.5,30.31,North,10,0.0,0.0,81,0.00,,---,0.00,VWS V14.01,2013-09-15 14:43:00,
2013-09-15 10:58:00,61.6,55.0,30.31,NW,306,0.0,1.0,79,0.00,,---,0.00,VWS V14.01,2013-09-15 14:58:00,
2013-09-15 11:13:00,62.8,53.3,30.30,NW,307,1.0,1.0,71,0.00,,---,0.00,VWS V14.01,2013-09-15 15:13:00,
2013-09-15 11:28:00,63.6,54.4,30.31,NW,326,0.0,2.0,72,0.00,,---,0.00,VWS V14.01,2013-09-15 15:28:00,
2013-09-15 11:43:00,63.9,54.3,30.30,North,355,0.0,2.0,71,0.00,,---,0.00,VWS V14.01,2013-09-15 15:43:00,
2013-09-15 11:58:00,64.5,52.9,30.30,NW,321,0.0,3.0,66,0.00,,---,0.00,VWS V14.01,2013-09-15 15:58:00,
2013-09-15 12:13:00,64.8,53.6,30.29,WNW,287,0.0,2.0,67,0.00,,---,0.00,VWS V14.01,2013-09-15 16:13:00,
2013-09-15 12:28:00,65.4,53.3,30.29,NW,325,0.0,3.0,65,0.00,,---,0.00,VWS V14.01,2013-09-15 16:28:00,
2013-09-15 12:43:00,65.9,54.7,30.29,NW,325,0.0,1.0,67,0.00,,---,0.00,VWS V14.01,2013-09-15 16:43:00,
2013-09-15 12:58:00,66.5,54.8,30.28,NW,325,0.0,0.0,66,0.00,,---,0.00,VWS V14.01,2013-09-15 16:58:00,
2013-09-15 13:13:00,66.8,54.7,30.28,SSW,205,1.0,2.0,65,0.00,,---,0.00,VWS V14.01,2013-09-15 17:13:00,
2013-09-15 13:28:00,67.4,55.2,30.27,SSW,205,1.0,1.0,65,0.00,,---,0.00,VWS V14.01,2013-09-15 17:28:00,
2013-09-15 13:43:00,67.8,54.8,30.26,SSW,205,1.0,1.0,63,0.00,,---,0.00,VWS V14.01,2013-09-15 17:43:00,
2013-09-15 13:58:00,68.2,55.6,30.26,SSW,205,1.0,1.0,64,0.00,,---,0.00,VWS V14.01,2013-09-15 17:58:00,
2013-09-15 14:13:00,68.5,53.6,30.25,West,277,1.0,1.0,59,0.00,,---,0.00,VWS V14.01,2013-09-15 18:13:00,
2013-09-15 14:28:00,68.6,53.7,30.25,North,5,0.0,3.0,59,0.00,,---,0.00,VWS V14.01,2013-09-15 18:28:00,
2013-09-15 14:43:00,68.5,54.1,30.24,North,5,0.0,0.0,60,0.00,,---,0.00,VWS V14.01,2013-09-15 18:43:00,
2013-09-15 14:58:00,68.6,53.7,30.24,North,5,0.0,0.0,59,0.00,,---,0.00,VWS V14.01,2013-09-15 18:58:00,
2013-09-15 15:13:00,68.3,55.2,30.23,North,5,0.0,0.0,63,0.00,,---,0.00,VWS V14.01,2013-09-15 19:13:00,
2013-09-15 15:28:00,68.4,54.4,30.23,North,5,0.0,0.0,61,0.00,,---,0.00,VWS V14.01,2013-09-15 19:28:00,
2013-09-15 15:43:00,68.3,54.8,30.23,NNW,327,0.0,0.0,62,0.00,,---,0.00,VWS V14.01,2013-09-15 19:43:00,
2013-09-15 15:58:00,67.9,57.0,30.23,NNW,327,0.0,0.0,68,0.00,,---,0.00,VWS V14.01,2013-09-15 19:58:00,
2013-09-15 16:13:00,67.6,55.8,30.22,NNW,327,0.0,0.0,66,0.00,,---,0.00,VWS V14.01,2013-09-15 20:13:00,
2013-09-15 16:28:00,67.0,55.7,30.22,NNW,327,0.0,0.0,67,0.00,,---,0.00,VWS V14.01,2013-09-15 20:28:00,
2013-09-15 16:43:00,66.8,55.5,30.22,NNW,327,0.0,0.0,67,0.00,,---,0.00,VWS V14.01,2013-09-15 20:43:00,
2013-09-15 16:58:00,66.5,54.8,30.22,NNW,327,0.0,0.0,66,0.00,,---,0.00,VWS V14.01,2013-09-15 20:58:00,
2013-09-15 17:13:00,66.0,54.7,30.22,NNW,327,0.0,0.0,67,0.00,,---,0.00,VWS V14.01,2013-09-15 21:13:00,
2013-09-15 17:28:00,65.7,54.9,30.22,NNW,327,0.0,0.0,68,0.00,,---,0.00,VWS V14.01,2013-09-15 21:28:00,
2013-09-15 17:43:00,65.2,54.8,30.22,NNW,327,0.0,0.0,69,0.00,,---,0.00,VWS V14.01,2013-09-15 21:43:00,
2013-09-15 17:58:00,64.7,55.1,30.22,NNW,327,0.0,0.0,71,0.00,,---,0.00,VWS V14.01,2013-09-15 21:58:00,
2013-09-15 18:13:00,63.6,55.5,30.22,NNW,327,0.0,0.0,75,0.00,,---,0.00,VWS V14.01,2013-09-15 22:13:00,
2013-09-15 18:28:00,62.5,55.2,30.22,NNW,327,0.0,0.0,77,0.00,,---,0.00,VWS V14.01,2013-09-15 22:28:00,
2013-09-15 18:43:00,61.5,55.3,30.22,NNW,327,0.0,0.0,80,0.00,,---,0.00,VWS V14.01,2013-09-15 22:43:00,
2013-09-15 18:58:00,60.6,54.8,30.22,NNW,327,0.0,0.0,81,0.00,,---,0.00,VWS V14.01,2013-09-15 22:58:00,
2013-09-15 19:13:00,59.8,54.0,30.22,NNW,327,0.0,0.0,81,0.00,,---,0.00,VWS V14.01,2013-09-15 23:13:00,
2013-09-15 19:28:00,59.0,53.5,30.22,NNW,327,0.0,0.0,82,0.00,,---,0.00,VWS V14.01,2013-09-15 23:28:00,
2013-09-15 19:43:00,58.3,53.5,30.22,NNW,327,0.0,0.0,84,0.00,,---,0.00,VWS V14.01,2013-09-15 23:43:00,
2013-09-15 19:58:00,57.5,52.7,30.22,NNW,327,0.0,0.0,84,0.00,,---,0.00,VWS V14.01,2013-09-15 23:58:00,
2013-09-15 20:13:00,56.8,51.7,30.22,NNW,327,0.0,0.0,83,0.00,,---,0.00,VWS V14.01,2013-09-16 00:13:00,
2013-09-15 20:28:00,56.4,52.0,30.22,NNW,327,0.0,0.0,85,0.00,,---,0.00,VWS V14.01,2013-09-16 00:28:00,
2013-09-15 20:43:00,56.2,52.1,30.22,NNW,327,0.0,0.0,86,0.00,,---,0.00,VWS V14.01,2013-09-16 00:43:00,
2013-09-15 20:58:00,55.8,51.7,30.23,NNW,327,0.0,0.0,86,0.00,,---,0.00,VWS V14.01,2013-09-16 00:58:00,
2013-09-15 21:13:00,55.4,51.9,30.23,NNW,327,0.0,0.0,88,0.00,,---,0.00,VWS V14.01,2013-09-16 01:13:00,
2013-09-15 21:28:00,55.2,52.0,30.22,NNW,327,0.0,0.0,89,0.00,,---,0.00,VWS V14.01,2013-09-16 01:28:00,
2013-09-15 21:43:00,55.1,52.2,30.22,NNW,327,0.0,0.0,90,0.00,,---,0.00,VWS V14.01,2013-09-16 01:43:00,
2013-09-15 21:58:00,54.7,51.8,30.23,NNW,327,0.0,0.0,90,0.00,,---,0.00,VWS V14.01,2013-09-16 01:58:00,
2013-09-15 22:13:00,54.5,51.9,30.22,NNW,327,0.0,0.0,91,0.00,,---,0.00,VWS V14.01,2013-09-16 02:13:00,
2013-09-15 22:28:00,54.2,51.6,30.22,NNW,327,0.0,0.0,91,0.00,,---,0.00,VWS V14.01,2013-09-16 02:28:00,
2013-09-15 22:43:00,53.9,51.6,30.22,NNW,327,0.0,0.0,92,0.00,,---,0.00,VWS V14.01,2013-09-16 02:43:00,
2013-09-15 22:58:00,53.5,51.2,30.22,NNW,327,0.0,0.0,92,0.00,,---,0.00,VWS V14.01,2013-09-16 02:58:00,
2013-09-15 23:13:00,53.2,51.2,30.22,NNW,327,0.0,0.0,93,0.00,,---,0.00,VWS V14.01,2013-09-16 03:13:00,
2013-09-15 23:28:00,53.0,51.3,30.22,NNW,327,0.0,0.0,94,0.00,,---,0.00,VWS V14.01,2013-09-16 03:28:00,
2013-09-15 23:43:00,52.9,51.2,30.22,NNW,327,0.0,0.0,94,0.00,,---,0.00,VWS V14.01,2013-09-16 03:43:00,
2013-09-15 23:58:00,52.9,51.5,30.21,NNW,327,0.0,0.0,95,0.00,,---,0.00,VWS V14.01,2013-09-16 03:58:00,